Time;durP1;ratioP1;P1;durP2;ratioP2;P2;SDS_P1;SDS_P2;PMS_P1;PMS_P2;Temp;Humidity;BMP_temperature;BMP_pressure;BME280_temperature;BME280_humidity;BME280_pressure;Samples;Min_cycle;Max_cycle;Signal;HPM_P1;HPM_P2
2021/09/17 00:02:12;;;;;;;13.57;5.47;;;23.20;56.80;;;;;;5066805;28;20252;-66
2021/09/17 00:04:42;;;;;;;5.93;5.07;;;23.20;56.80;;;;;;5067062;28;20223;-66
2021/09/17 00:07:10;;;;;;;6.23;5.70;;;23.20;57.50;;;;;;5058862;28;20207;-67
2021/09/17 00:09:37;;;;;;;5.53;5.03;;;23.20;56.90;;;;;;5068872;28;20209;-67
2021/09/17 00:12:11;;;;;;;5.70;5.07;;;23.20;56.90;;;;;;5061130;28;20222;-66
2021/09/17 00:14:41;;;;;;;6.57;4.93;;;23.20;56.90;;;;;;5068650;28;20320;-66
2021/09/17 00:17:11;;;;;;;5.63;5.13;;;23.20;56.90;;;;;;5056598;28;20651;-66
2021/09/17 00:19:41;;;;;;;5.83;5.33;;;23.20;56.90;;;;;;5063401;28;20203;-66
2021/09/17 00:22:10;;;;;;;5.23;4.73;;;23.20;57.00;;;;;;5061233;28;20201;-66
2021/09/17 00:24:41;;;;;;;5.63;5.13;;;23.20;57.00;;;;;;5062937;28;20199;-66
2021/09/17 00:27:13;;;;;;;6.03;5.37;;;23.10;57.00;;;;;;5062385;28;20208;-66
2021/09/17 00:29:43;;;;;;;5.17;4.77;;;23.20;57.00;;;;;;5071145;28;20220;-66
2021/09/17 00:32:15;;;;;;;5.50;4.97;;;23.10;57.10;;;;;;5068250;28;20257;-67
2021/09/17 00:34:48;;;;;;;6.13;5.53;;;23.10;57.00;;;;;;5067690;28;20623;-67
2021/09/17 00:37:17;;;;;;;5.77;5.27;;;23.10;57.10;;;;;;5065786;28;20243;-67
2021/09/17 00:39:50;;;;;;;5.77;5.27;;;23.10;57.10;;;;;;5068264;28;20194;-67
2021/09/17 00:42:18;;;;;;;5.83;5.23;;;23.10;57.10;;;;;;5065252;28;20212;-67
2021/09/17 00:44:49;;;;;;;5.30;4.80;;;23.10;57.10;;;;;;5068028;28;20200;-67
2021/09/17 00:47:19;;;;;;;5.30;4.80;;;23.10;57.10;;;;;;5067840;28;20212;-66
2021/09/17 00:49:52;;;;;;;6.57;5.67;;;23.10;57.10;;;;;;5062965;28;20706;-66
2021/09/17 00:52:24;;;;;;;5.90;4.73;;;23.10;57.20;;;;;;5062067;28;20634;-66
2021/09/17 00:54:56;;;;;;;6.17;5.57;;;23.10;57.40;;;;;;5057249;28;20204;-66
2021/09/17 00:57:26;;;;;;;5.77;5.27;;;23.10;57.20;;;;;;5059969;28;20276;-67
2021/09/17 01:00:00;;;;;;;5.60;5.10;;;23.10;57.20;;;;;;5059569;28;20619;-67
2021/09/17 01:02:30;;;;;;;5.60;5.10;;;23.00;57.20;;;;;;5057093;28;20198;-67
2021/09/17 01:05:05;;;;;;;5.50;5.00;;;23.00;57.20;;;;;;5063194;28;20191;-67
2021/09/17 01:07:37;;;;;;;5.80;5.30;;;23.00;57.20;;;;;;5062003;28;20667;-67
2021/09/17 01:10:10;;;;;;;5.53;5.00;;;23.00;57.20;;;;;;5065827;28;20662;-67
2021/09/17 01:12:39;;;;;;;5.57;5.07;;;23.00;57.20;;;;;;5069701;28;20541;-67
2021/09/17 01:15:10;;;;;;;5.33;4.70;;;23.00;57.20;;;;;;5064440;28;20291;-67
2021/09/17 01:17:42;;;;;;;5.20;4.80;;;23.00;57.20;;;;;;5051672;28;20244;-67
2021/09/17 01:20:18;;;;;;;6.47;5.63;;;23.00;57.20;;;;;;5080769;28;20586;-67
2021/09/17 01:22:50;;;;;;;5.27;4.77;;;23.00;57.20;;;;;;5042543;28;20189;-66
2021/09/17 01:25:22;;;;;;;5.47;4.97;;;23.00;57.30;;;;;;5062639;28;20213;-66
2021/09/17 01:27:54;;;;;;;6.10;5.60;;;23.00;57.20;;;;;;5062626;28;20657;-67
2021/09/17 01:30:23;;;;;;;5.30;4.87;;;23.00;57.30;;;;;;5067523;28;20201;-66
2021/09/17 01:32:55;;;;;;;5.27;4.77;;;23.00;57.30;;;;;;5067067;28;20297;-66
2021/09/17 01:35:24;;;;;;;5.87;5.27;;;23.00;57.20;;;;;;5069613;28;20649;-66
2021/09/17 01:37:54;;;;;;;6.10;5.57;;;23.00;57.30;;;;;;5065112;28;20196;-66
2021/09/17 01:40:26;;;;;;;5.90;5.30;;;23.00;57.30;;;;;;5067040;28;20207;-67
2021/09/17 01:42:58;;;;;;;5.97;5.47;;;23.00;57.20;;;;;;5062552;28;20199;-66
2021/09/17 01:45:30;;;;;;;6.00;5.40;;;22.90;57.20;;;;;;5058492;28;20259;-67
2021/09/17 01:47:59;;;;;;;5.83;5.33;;;22.90;57.20;;;;;;5065634;28;20223;-67
2021/09/17 01:50:29;;;;;;;6.00;5.40;;;23.00;57.30;;;;;;5063266;28;20231;-67
2021/09/17 01:53:04;;;;;;;5.63;5.13;;;22.90;57.20;;;;;;5064428;28;20206;-67
2021/09/17 01:55:35;;;;;;;6.53;5.17;;;22.90;57.20;;;;;;5055650;28;20223;-67
2021/09/17 01:58:04;;;;;;;6.07;5.53;;;22.90;57.20;;;;;;5060697;28;20283;-66
2021/09/17 02:00:50;;;;;;;6.30;5.47;;;22.90;57.20;;;;;;5062163;28;20627;-67
2021/09/17 02:03:23;;;;;;;6.33;5.73;;;22.90;57.30;;;;;;5067276;28;20203;-67
2021/09/17 02:05:54;;;;;;;6.10;5.50;;;22.90;57.30;;;;;;5065812;28;20794;-67
2021/09/17 02:08:21;;;;;;;6.00;5.50;;;22.90;57.20;;;;;;5056897;28;20201;-66
2021/09/17 02:10:50;;;;;;;6.13;5.37;;;22.90;57.30;;;;;;5063191;28;20221;-67
2021/09/17 02:13:24;;;;;;;6.90;6.07;;;22.90;57.30;;;;;;5068840;28;20206;-67
2021/09/17 02:15:53;;;;;;;6.37;5.77;;;22.80;57.30;;;;;;5061566;28;20247;-67
2021/09/17 02:18:23;;;;;;;5.90;5.40;;;22.90;57.30;;;;;;5059764;28;20206;-66
2021/09/17 02:20:53;;;;;;;6.10;5.50;;;22.90;57.30;;;;;;5062793;28;20202;-67
2021/09/17 02:23:24;;;;;;;6.30;5.70;;;22.90;57.30;;;;;;5071342;28;20194;-66
2021/09/17 02:25:54;;;;;;;6.43;5.83;;;22.90;57.30;;;;;;5061997;28;20205;-66
2021/09/17 02:28:22;;;;;;;5.73;5.23;;;22.90;57.40;;;;;;5044451;28;20222;-67
2021/09/17 02:30:52;;;;;;;6.20;5.60;;;22.90;57.40;;;;;;5068056;28;20285;-67
2021/09/17 02:33:22;;;;;;;6.03;5.37;;;22.90;57.40;;;;;;5066461;28;20220;-66
2021/09/17 02:35:51;;;;;;;6.97;5.80;;;22.90;57.40;;;;;;5063760;28;20209;-66
2021/09/17 02:38:22;;;;;;;6.63;6.03;;;22.90;57.40;;;;;;5058883;28;20207;-66
2021/09/17 02:40:55;;;;;;;6.23;5.63;;;22.80;57.40;;;;;;5063172;28;20196;-66
2021/09/17 02:43:25;;;;;;;6.03;5.50;;;22.80;57.40;;;;;;5061067;28;20192;-68
2021/09/17 02:45:59;;;;;;;5.67;5.17;;;22.80;57.40;;;;;;5056370;28;20219;-67
2021/09/17 02:48:32;;;;;;;6.43;5.83;;;22.80;57.40;;;;;;5060024;28;20198;-67
2021/09/17 02:51:04;;;;;;;5.83;5.33;;;22.80;57.30;;;;;;5072029;28;20201;-67
2021/09/17 02:53:31;;;;;;;6.37;5.77;;;22.90;57.30;;;;;;5065068;28;20200;-66
2021/09/17 02:56:03;;;;;;;7.07;5.83;;;22.80;57.30;;;;;;5059911;28;20207;-66
2021/09/17 02:58:36;;;;;;;6.77;5.73;;;22.80;57.40;;;;;;5064974;28;20257;-67
2021/09/17 03:01:06;;;;;;;6.60;6.00;;;22.80;57.40;;;;;;5067668;28;20205;-67
2021/09/17 03:03:39;;;;;;;6.07;5.57;;;22.80;57.40;;;;;;5067366;28;20209;-67
2021/09/17 03:06:06;;;;;;;8.50;6.27;;;22.80;57.40;;;;;;5064708;28;21866;-66
2021/09/17 03:08:37;;;;;;;6.23;5.73;;;22.80;57.50;;;;;;5069594;28;20250;-66
2021/09/17 03:11:06;;;;;;;7.23;6.40;;;22.80;57.50;;;;;;5070004;28;20205;-66
2021/09/17 03:13:37;;;;;;;5.90;5.40;;;22.80;57.50;;;;;;5070375;28;20227;-67
2021/09/17 03:16:08;;;;;;;6.83;5.90;;;22.80;57.50;;;;;;5065916;28;20225;-67
2021/09/17 03:18:39;;;;;;;7.13;6.17;;;22.80;57.50;;;;;;5063555;28;20215;-67
2021/09/17 03:21:10;;;;;;;5.97;5.40;;;22.80;57.50;;;;;;5061344;28;20206;-67
2021/09/17 03:23:41;;;;;;;5.93;5.33;;;22.80;57.50;;;;;;5061450;28;20200;-66
2021/09/17 03:26:13;;;;;;;5.57;5.07;;;22.80;57.60;;;;;;5066669;28;20223;-66
2021/09/17 03:28:44;;;;;;;6.17;5.57;;;22.80;57.60;;;;;;5068813;28;20200;-66
2021/09/17 03:31:16;;;;;;;5.83;5.33;;;22.70;57.50;;;;;;5063636;28;20302;-67
2021/09/17 03:33:46;;;;;;;5.90;5.40;;;22.80;57.60;;;;;;5071016;28;20217;-66
2021/09/17 03:36:16;;;;;;;6.03;5.43;;;22.80;57.60;;;;;;5068459;28;20707;-66
2021/09/17 03:38:46;;;;;;;6.40;5.83;;;22.80;57.60;;;;;;5065648;28;20193;-66
2021/09/17 03:41:18;;;;;;;6.60;6.00;;;22.80;57.60;;;;;;5066793;28;20216;-66
2021/09/17 03:43:48;;;;;;;5.90;5.40;;;22.70;57.60;;;;;;5070315;28;20218;-67
2021/09/17 03:46:18;;;;;;;7.53;6.37;;;22.80;57.70;;;;;;5062444;28;20208;-66
2021/09/17 03:48:49;;;;;;;6.40;5.80;;;22.80;57.70;;;;;;5064944;28;20210;-66
2021/09/17 03:51:19;;;;;;;5.63;5.13;;;22.70;57.60;;;;;;5069188;28;20270;-67
2021/09/17 03:53:50;;;;;;;6.77;5.80;;;22.70;57.60;;;;;;5070395;28;20238;-66
2021/09/17 03:56:20;;;;;;;6.47;5.80;;;22.70;57.60;;;;;;5069147;28;20221;-67
2021/09/17 03:58:51;;;;;;;5.77;5.27;;;22.70;57.60;;;;;;5064122;28;20194;-67
2021/09/17 04:01:22;;;;;;;6.47;5.87;;;22.70;57.60;;;;;;5068307;28;20187;-66
2021/09/17 04:03:53;;;;;;;6.83;5.70;;;22.70;57.70;;;;;;5063348;28;20210;-66
2021/09/17 04:06:22;;;;;;;6.60;6.00;;;22.70;57.80;;;;;;5067077;28;20569;-66
2021/09/17 04:08:53;;;;;;;7.13;5.43;;;22.70;57.80;;;;;;5065636;28;20779;-67
2021/09/17 04:11:21;;;;;;;7.00;6.30;;;22.70;57.70;;;;;;5054939;28;20221;-67
2021/09/17 04:13:50;;;;;;;7.50;6.90;;;22.70;57.70;;;;;;5066919;28;20201;-67
2021/09/17 04:16:21;;;;;;;6.50;5.80;;;22.70;57.80;;;;;;5062624;28;20620;-66
2021/09/17 04:18:51;;;;;;;6.83;6.23;;;22.70;57.70;;;;;;5065488;28;20205;-66
2021/09/17 04:21:37;;;;;;;6.53;6.00;;;22.70;57.70;;;;;;5059561;28;20300;-66
2021/09/17 04:24:08;;;;;;;7.13;6.20;;;22.70;57.70;;;;;;5060874;28;20235;-66
2021/09/17 04:26:38;;;;;;;7.17;6.40;;;22.70;57.70;;;;;;5067783;28;20623;-67
2021/09/17 04:29:05;;;;;;;7.10;6.50;;;22.70;57.70;;;;;;5066206;28;20561;-67
2021/09/17 04:31:32;;;;;;;7.33;6.63;;;22.70;57.70;;;;;;5049937;28;21265;-67
2021/09/17 04:34:04;;;;;;;8.97;7.17;;;22.70;57.70;;;;;;5070137;28;20210;-67
2021/09/17 04:36:36;;;;;;;7.37;6.77;;;22.70;57.70;;;;;;5064969;28;20229;-67
2021/09/17 04:39:04;;;;;;;7.80;7.00;;;22.70;57.70;;;;;;5052202;28;20202;-66
2021/09/17 04:41:36;;;;;;;7.60;6.90;;;22.70;57.70;;;;;;5065989;28;20649;-67
2021/09/17 04:44:07;;;;;;;7.57;6.80;;;22.70;57.70;;;;;;5067781;28;20194;-66
2021/09/17 04:46:38;;;;;;;7.73;7.00;;;22.70;57.70;;;;;;5048689;28;20202;-66
2021/09/17 04:49:09;;;;;;;9.53;7.43;;;22.70;57.70;;;;;;5069245;28;20202;-66
2021/09/17 04:51:39;;;;;;;8.13;7.30;;;22.70;57.70;;;;;;5066591;28;20216;-67
2021/09/17 04:54:06;;;;;;;8.40;7.50;;;22.70;57.60;;;;;;5062785;28;20204;-67
2021/09/17 04:56:38;;;;;;;8.47;7.57;;;22.70;57.70;;;;;;5066102;28;20197;-66
2021/09/17 04:59:14;;;;;;;9.70;8.73;;;22.70;57.90;;;;;;5063263;28;20201;-67
2021/09/17 05:01:51;;;;;;;13.60;8.57;;;22.70;57.90;;;;;;5066598;28;20497;-66
2021/09/17 05:04:24;;;;;;;10.43;8.90;;;22.70;57.90;;;;;;5063233;28;20632;-66
2021/09/17 05:06:54;;;;;;;10.33;9.33;;;22.60;57.70;;;;;;5078401;28;20206;-67
2021/09/17 05:09:30;;;;;;;10.47;9.47;;;22.60;57.70;;;;;;5063903;28;20201;-68
2021/09/17 05:11:59;;;;;;;11.07;9.97;;;22.60;57.60;;;;;;5074608;28;20210;-66
2021/09/17 05:14:30;;;;;;;11.30;9.60;;;22.60;57.60;;;;;;5065591;28;20617;-66
2021/09/17 05:17:03;;;;;;;10.63;9.63;;;22.60;57.60;;;;;;5058782;28;20216;-66
2021/09/17 05:19:34;;;;;;;11.00;10.00;;;22.60;57.50;;;;;;5062875;28;20209;-66
2021/09/17 05:22:03;;;;;;;11.67;10.37;;;22.60;57.50;;;;;;5052150;28;20202;-65
2021/09/17 05:24:38;;;;;;;16.93;10.57;;;22.60;57.50;;;;;;5065345;28;20222;-65
2021/09/17 05:27:14;;;;;;;11.80;10.57;;;22.60;57.40;;;;;;5054569;28;20768;-65
2021/09/17 05:29:44;;;;;;;10.93;9.93;;;22.60;57.40;;;;;;5060538;28;20520;-66
2021/09/17 05:32:11;;;;;;;12.83;10.83;;;22.60;57.40;;;;;;5059962;28;20241;-66
2021/09/17 05:34:40;;;;;;;11.60;10.43;;;22.60;57.40;;;;;;5066649;28;20210;-66
2021/09/17 05:37:12;;;;;;;11.63;10.53;;;22.60;57.60;;;;;;5069831;28;20230;-66
2021/09/17 05:39:45;;;;;;;14.40;11.27;;;22.60;57.70;;;;;;5059264;28;20194;-65
2021/09/17 05:42:14;;;;;;;13.73;11.30;;;22.60;57.70;;;;;;5059464;28;20202;-65
2021/09/17 05:44:44;;;;;;;12.13;10.43;;;22.60;57.60;;;;;;5058283;28;20600;-65
2021/09/17 05:47:15;;;;;;;13.07;11.77;;;22.60;57.50;;;;;;5061018;28;20620;-66
2021/09/17 05:49:44;;;;;;;19.03;12.73;;;22.50;57.50;;;;;;5053437;28;20211;-66
2021/09/17 05:52:28;;;;;;;47.47;18.90;;;22.50;57.80;;;;;;5064151;28;20286;-66
2021/09/17 05:55:00;;;;;;;39.60;17.03;;;22.50;59.80;;;;;;5051404;28;20204;-67
2021/09/17 05:57:29;;;;;;;27.77;15.07;;;22.50;59.50;;;;;;5064426;28;20225;-66
2021/09/17 06:00:00;;;;;;;28.53;13.93;;;22.50;60.00;;;;;;5061203;28;20204;-66
2021/09/17 06:02:32;;;;;;;25.13;13.00;;;22.50;59.90;;;;;;5060418;28;20291;-66
2021/09/17 06:05:04;;;;;;;20.33;13.03;;;22.60;59.30;;;;;;5064283;28;20209;-66
2021/09/17 06:07:45;;;;;;;16.47;12.30;;;22.60;58.90;;;;;;5057843;28;20558;-66
2021/09/17 06:10:15;;;;;;;15.53;11.97;;;22.60;58.50;;;;;;5056179;28;20311;-66
2021/09/17 06:12:45;;;;;;;13.63;12.33;;;22.60;58.20;;;;;;5079269;28;20704;-66
2021/09/17 06:15:18;;;;;;;15.10;12.17;;;22.50;58.00;;;;;;5061432;28;20199;-65
2021/09/17 06:17:46;;;;;;;15.20;12.70;;;22.50;57.80;;;;;;5062649;28;20873;-65
2021/09/17 06:20:18;;;;;;;14.60;12.13;;;22.50;57.80;;;;;;5062613;28;20210;-66
2021/09/17 06:22:53;;;;;;;16.27;12.63;;;22.50;57.70;;;;;;5058051;28;20189;-65
2021/09/17 06:25:23;;;;;;;13.53;12.13;;;22.50;57.70;;;;;;5062784;28;20206;-65
2021/09/17 06:27:52;;;;;;;13.70;12.23;;;22.50;57.60;;;;;;5061696;28;20687;-66
2021/09/17 06:30:23;;;;;;;13.57;12.17;;;22.50;57.80;;;;;;5061519;28;20281;-66
2021/09/17 06:32:53;;;;;;;15.73;12.33;;;22.50;57.70;;;;;;5064043;28;20265;-66
2021/09/17 06:35:27;;;;;;;12.03;10.87;;;22.50;57.70;;;;;;5065824;28;20208;-65
2021/09/17 06:38:03;;;;;;;13.33;11.90;;;22.50;57.70;;;;;;5066313;28;20681;-65
2021/09/17 06:40:34;;;;;;;13.27;11.90;;;22.50;57.70;;;;;;5063984;28;20195;-66
2021/09/17 06:43:03;;;;;;;12.47;11.17;;;22.50;57.60;;;;;;5059137;28;20199;-65
2021/09/17 06:45:31;;;;;;;13.07;11.63;;;22.50;57.70;;;;;;5061785;28;20530;-65
2021/09/17 06:47:59;;;;;;;15.93;12.93;;;22.50;57.60;;;;;;5080314;28;20234;-66
2021/09/17 06:50:30;;;;;;;15.30;12.70;;;22.50;57.50;;;;;;5068989;28;20202;-66
2021/09/17 06:52:59;;;;;;;13.93;12.10;;;22.50;57.50;;;;;;5060078;28;20254;-66
2021/09/17 06:55:32;;;;;;;13.10;11.73;;;22.50;57.80;;;;;;5069191;28;20199;-66
2021/09/17 06:58:04;;;;;;;12.80;11.30;;;22.50;58.40;;;;;;5063367;28;20222;-66
2021/09/17 07:00:38;;;;;;;13.33;11.37;;;22.50;59.20;;;;;;5065012;28;20191;-67
2021/09/17 07:03:14;;;;;;;13.83;11.43;;;22.50;58.60;;;;;;5056409;28;20883;-64
2021/09/17 07:05:45;;;;;;;15.77;12.88;;;22.50;58.60;;;;;;5053617;28;20449;-64
2021/09/17 07:08:15;;;;;;;14.63;13.10;;;22.50;59.10;;;;;;5059118;28;20217;-63
2021/09/17 07:10:47;;;;;;;14.83;13.33;;;22.50;58.90;;;;;;5061022;28;20201;-64
2021/09/17 07:13:17;;;;;;;16.87;14.43;;;22.60;58.50;;;;;;5064774;28;20202;-64
2021/09/17 07:15:50;;;;;;;16.43;13.43;;;22.60;58.30;;;;;;5053918;28;20205;-64
2021/09/17 07:18:21;;;;;;;16.17;14.17;;;22.60;58.20;;;;;;5064305;28;20228;-65
2021/09/17 07:20:59;;;;;;;16.67;14.83;;;22.60;57.90;;;;;;5052668;28;20194;-67
2021/09/17 07:23:35;;;;;;;17.70;15.23;;;22.70;57.80;;;;;;5063587;28;20191;-63
2021/09/17 07:26:05;;;;;;;17.37;15.00;;;22.70;57.80;;;;;;5067648;28;20198;-63
2021/09/17 07:28:33;;;;;;;17.73;15.03;;;22.70;57.60;;;;;;5061383;28;20234;-63
2021/09/17 07:31:02;;;;;;;18.33;14.87;;;22.70;57.50;;;;;;5054015;28;20271;-64
2021/09/17 07:33:31;;;;;;;15.47;13.97;;;22.70;57.40;;;;;;5059969;28;20749;-64
2021/09/17 07:35:59;;;;;;;16.73;14.93;;;22.80;57.40;;;;;;5054692;28;20236;-65
2021/09/17 07:38:28;;;;;;;17.17;14.63;;;22.80;57.40;;;;;;5066109;28;20245;-63
2021/09/17 07:40:58;;;;;;;16.10;14.47;;;22.80;57.30;;;;;;5069570;28;20226;-64
2021/09/17 07:43:28;;;;;;;16.50;14.63;;;22.80;57.20;;;;;;5067100;28;20190;-64
2021/09/17 07:45:57;;;;;;;16.93;15.03;;;22.80;57.20;;;;;;5060835;28;20644;-65
2021/09/17 07:48:33;;;;;;;17.73;15.27;;;22.80;57.20;;;;;;5065353;28;20668;-64
2021/09/17 07:51:06;;;;;;;17.87;15.13;;;22.80;57.20;;;;;;5062433;28;20211;-63
2021/09/17 07:53:35;;;;;;;17.20;15.50;;;22.90;57.20;;;;;;5066689;28;20202;-63
2021/09/17 07:56:06;;;;;;;17.47;15.80;;;22.90;57.10;;;;;;5071092;28;20231;-63
2021/09/17 07:58:37;;;;;;;17.40;15.63;;;22.90;57.00;;;;;;5062467;28;20801;-63
2021/09/17 08:01:07;;;;;;;19.40;15.80;;;22.90;57.00;;;;;;5059046;28;20198;-64
2021/09/17 08:03:39;;;;;;;16.60;14.97;;;23.00;57.10;;;;;;5067007;28;20661;-64
2021/09/17 08:06:10;;;;;;;18.30;16.27;;;23.00;57.10;;;;;;5084745;28;20211;-65
2021/09/17 08:08:41;;;;;;;18.30;16.50;;;23.00;57.10;;;;;;5066708;28;20201;-62
2021/09/17 08:11:14;;;;;;;17.07;15.13;;;23.00;57.10;;;;;;5068366;28;20195;-63
2021/09/17 08:13:46;;;;;;;18.30;16.50;;;23.00;57.10;;;;;;5065337;28;20210;-63
2021/09/17 08:16:15;;;;;;;20.17;16.90;;;23.00;57.10;;;;;;5060225;28;20198;-63
2021/09/17 08:18:46;;;;;;;18.27;16.20;;;23.00;57.00;;;;;;5062238;28;20492;-63
2021/09/17 08:21:17;;;;;;;19.87;16.77;;;23.00;57.00;;;;;;5056018;28;20202;-63
2021/09/17 08:23:50;;;;;;;19.87;17.97;;;23.00;57.00;;;;;;5067837;28;20205;-63
2021/09/17 08:26:19;;;;;;;19.50;17.60;;;23.00;57.00;;;;;;5058753;28;20663;-64
2021/09/17 08:28:56;;;;;;;18.07;16.17;;;23.00;57.10;;;;;;5060242;28;20203;-63
2021/09/17 08:31:26;;;;;;;20.17;18.20;;;23.10;57.20;;;;;;5060947;28;20207;-63
2021/09/17 08:33:58;;;;;;;20.77;17.90;;;23.10;57.20;;;;;;5065192;28;20212;-63
2021/09/17 08:36:30;;;;;;;19.80;17.97;;;23.10;57.10;;;;;;5064629;28;20219;-62
2021/09/17 08:39:05;;;;;;;19.10;17.20;;;23.10;57.20;;;;;;5061434;28;20812;-63
2021/09/17 08:41:38;;;;;;;18.40;16.40;;;23.10;57.20;;;;;;5057575;28;20630;-66
2021/09/17 08:44:08;;;;;;;20.03;18.03;;;23.10;57.30;;;;;;5067500;28;20875;-65
2021/09/17 08:46:41;;;;;;;19.67;17.77;;;23.10;57.30;;;;;;5066358;28;20209;-63
2021/09/17 08:49:13;;;;;;;19.53;17.10;;;23.10;57.40;;;;;;5065537;28;20698;-63
2021/09/17 08:51:55;;;;;;;18.17;16.40;;;23.10;57.30;;;;;;5065198;28;20243;-63
2021/09/17 08:54:34;;;;;;;18.97;17.03;;;23.10;57.40;;;;;;5061449;28;20272;-63
2021/09/17 08:57:12;;;;;;;19.30;17.37;;;23.20;57.40;;;;;;5062755;28;20202;-63
2021/09/17 08:59:45;;;;;;;20.90;18.43;;;23.20;57.40;;;;;;5066912;28;20196;-63
2021/09/17 09:02:50;;;;;;;19.33;17.40;;;23.20;57.50;;;;;;5066613;28;20685;-63
2021/09/17 09:05:38;;;;;;;19.73;17.73;;;23.20;57.50;;;;;;5056473;28;20631;-64
2021/09/17 09:08:09;;;;;;;20.40;18.40;;;23.20;57.40;;;;;;5069748;28;20286;-64
2021/09/17 09:10:42;;;;;;;19.37;17.33;;;23.20;57.40;;;;;;5064812;28;20210;-67
2021/09/17 09:13:15;;;;;;;19.17;17.17;;;23.20;57.50;;;;;;5058280;28;20664;-67
2021/09/17 09:15:46;;;;;;;18.93;17.03;;;23.20;57.40;;;;;;5061257;28;20206;-67
2021/09/17 09:18:16;;;;;;;20.60;17.27;;;23.20;57.40;;;;;;5062858;28;20210;-67
2021/09/17 09:20:48;;;;;;;18.80;16.93;;;23.20;57.40;;;;;;5066307;28;20593;-66
2021/09/17 09:23:22;;;;;;;20.17;16.60;;;23.20;57.50;;;;;;5043910;28;20199;-66
2021/09/17 09:26:05;;;;;;;18.63;16.73;;;23.20;57.60;;;;;;5060493;28;20221;-68
2021/09/17 09:28:45;;;;;;;52.27;25.10;;;23.20;57.90;;;;;;5068576;28;20244;-68
2021/09/17 09:31:19;;;;;;;62.73;27.23;;;23.20;58.60;;;;;;5064383;28;20785;-67
2021/09/17 09:33:53;;;;;;;48.60;24.83;;;23.20;58.60;;;;;;5067723;28;20668;-67
2021/09/17 09:36:35;;;;;;;37.83;21.87;;;23.20;58.40;;;;;;5061628;28;20214;-67
2021/09/17 09:39:11;;;;;;;29.27;19.70;;;23.20;58.40;;;;;;5067502;28;20723;-67
2021/09/17 09:41:41;;;;;;;23.37;17.80;;;23.20;58.40;;;;;;5064964;28;20207;-67
2021/09/17 09:44:16;;;;;;;21.40;17.17;;;23.20;58.30;;;;;;5067799;28;20206;-67
2021/09/17 09:46:47;;;;;;;21.77;17.60;;;23.20;58.30;;;;;;5066318;28;20219;-67
2021/09/17 09:49:29;;;;;;;20.83;17.20;;;23.20;58.30;;;;;;5061633;28;20294;-67
2021/09/17 09:52:09;;;;;;;23.63;19.00;;;23.20;58.30;;;;;;5068492;28;20195;-66
2021/09/17 09:54:40;;;;;;;18.67;16.27;;;23.20;58.30;;;;;;5066319;28;20652;-68
2021/09/17 09:57:10;;;;;;;20.63;18.53;;;23.10;58.60;;;;;;5061147;28;20236;-67
2021/09/17 09:59:42;;;;;;;19.00;17.00;;;23.10;58.60;;;;;;5064407;28;20231;-67
2021/09/17 10:02:15;;;;;;;18.07;15.73;;;23.10;58.60;;;;;;5056231;28;20290;-68
2021/09/17 10:04:47;;;;;;;17.40;14.70;;;23.10;58.70;;;;;;5064223;28;20231;-68
2021/09/17 10:07:18;;;;;;;18.17;16.07;;;23.10;58.80;;;;;;5063254;28;20758;-67
2021/09/17 10:09:50;;;;;;;17.07;15.27;;;23.10;58.80;;;;;;5063268;28;20199;-67
2021/09/17 10:12:26;;;;;;;16.60;14.33;;;23.10;58.80;;;;;;5055215;28;20200;-67
2021/09/17 10:15:02;;;;;;;16.13;13.83;;;23.20;58.90;;;;;;5059697;28;20219;-67
2021/09/17 10:17:39;;;;;;;16.73;14.93;;;23.10;58.70;;;;;;5059350;28;20222;-67
2021/09/17 10:20:10;;;;;;;15.97;14.27;;;23.10;58.70;;;;;;5061173;28;20214;-67
2021/09/17 10:22:45;;;;;;;16.60;14.87;;;23.10;58.90;;;;;;5056165;28;20217;-67
2021/09/17 10:25:28;;;;;;;19.30;17.23;;;23.10;58.70;;;;;;5070721;28;20205;-67
2021/09/17 10:28:14;;;;;;;19.73;17.63;;;23.10;58.60;;;;;;5061040;28;20708;-67
2021/09/17 10:30:43;;;;;;;19.73;17.77;;;23.10;58.20;;;;;;5071900;28;20199;-67
2021/09/17 10:33:29;;;;;;;21.37;18.23;;;23.10;58.10;;;;;;5063392;28;20265;-67
2021/09/17 10:35:58;;;;;;;21.50;18.73;;;23.10;57.60;;;;;;5064389;28;20198;-67
2021/09/17 10:38:33;;;;;;;22.80;16.77;;;23.10;57.00;;;;;;5061771;28;20590;-68
2021/09/17 10:41:11;;;;;;;25.97;17.03;;;23.00;57.20;;;;;;5082685;28;20281;-67
2021/09/17 10:43:58;;;;;;;19.07;16.30;;;23.10;57.40;;;;;;5085023;28;20209;-67
2021/09/17 10:46:38;;;;;;;18.43;15.47;;;23.00;57.30;;;;;;5070475;28;20199;-68
2021/09/17 10:49:06;;;;;;;17.07;15.27;;;23.10;57.00;;;;;;5060025;28;20685;-68
2021/09/17 10:51:38;;;;;;;17.43;15.50;;;23.10;57.10;;;;;;5083184;28;20212;-67
2021/09/17 10:54:20;;;;;;;16.30;14.60;;;23.10;57.10;;;;;;5086291;28;20208;-68
2021/09/17 10:57:03;;;;;;;14.83;13.33;;;23.10;57.10;;;;;;5078436;28;20211;-68
2021/09/17 10:59:41;;;;;;;15.63;13.50;;;23.00;57.20;;;;;;5088145;28;20726;-68
2021/09/17 11:02:10;;;;;;;14.60;12.90;;;23.10;57.00;;;;;;5069676;28;20210;-68
2021/09/17 11:05:12;;;;;;;16.60;12.60;;;23.10;57.10;;;;;;5072318;28;20256;-68
2021/09/17 11:07:48;;;;;;;12.90;11.53;;;23.10;57.00;;;;;;5066894;28;20804;-68
2021/09/17 11:10:33;;;;;;;11.47;10.27;;;23.20;57.10;;;;;;5069331;28;20895;-68
2021/09/17 11:13:06;;;;;;;12.40;10.53;;;23.10;57.50;;;;;;5086273;28;20205;-68
2021/09/17 11:15:37;;;;;;;15.70;11.97;;;23.20;57.50;;;;;;5075116;28;20301;-67
2021/09/17 11:18:17;;;;;;;14.73;13.03;;;23.20;57.10;;;;;;5084005;28;20193;-67
2021/09/17 11:20:53;;;;;;;14.97;12.33;;;23.20;57.00;;;;;;5083244;28;20197;-67
2021/09/17 11:23:36;;;;;;;12.57;11.13;;;23.20;57.10;;;;;;5100126;28;20201;-69
2021/09/17 11:26:04;;;;;;;15.57;13.87;;;23.20;57.10;;;;;;5095210;28;20285;-67
2021/09/17 11:28:33;;;;;;;16.93;13.90;;;23.20;56.40;;;;;;5060730;28;20205;-67
2021/09/17 11:31:19;;;;;;;15.80;14.03;;;23.20;55.90;;;;;;5084370;28;20209;-67
2021/09/17 11:34:03;;;;;;;15.27;12.50;;;23.20;55.80;;;;;;5092202;28;20762;-67
2021/09/17 11:37:00;;;;;;;14.33;12.57;;;23.20;56.00;;;;;;5071537;28;20249;-67
2021/09/17 11:39:38;;;;;;;12.27;10.90;;;23.20;56.30;;;;;;5078881;28;20226;-67
2021/09/17 11:42:19;;;;;;;13.67;8.97;;;23.20;56.70;;;;;;5072902;28;20237;-67
2021/09/17 11:44:52;;;;;;;10.67;8.90;;;23.20;56.30;;;;;;5090270;28;20198;-67
2021/09/17 11:47:31;;;;;;;8.27;7.47;;;23.20;56.30;;;;;;5090189;28;20773;-67
2021/09/17 11:50:13;;;;;;;9.13;7.57;;;23.20;56.60;;;;;;5086335;28;20191;-67
2021/09/17 11:52:51;;;;;;;9.03;8.13;;;23.20;56.60;;;;;;5088079;28;20205;-67
2021/09/17 11:55:25;;;;;;;9.00;7.27;;;23.20;55.10;;;;;;5075157;28;20218;-67
2021/09/17 11:57:59;;;;;;;8.77;7.83;;;23.30;54.70;;;;;;5075467;28;20265;-67
2021/09/17 12:00:31;;;;;;;8.00;7.20;;;23.30;54.90;;;;;;5085169;28;20757;-67
2021/09/17 12:03:15;;;;;;;9.07;7.93;;;23.30;55.20;;;;;;5071292;28;20867;-67
2021/09/17 12:05:44;;;;;;;9.60;8.60;;;23.30;54.00;;;;;;5080033;28;20197;-67
2021/09/17 12:08:21;;;;;;;9.57;8.00;;;23.30;53.60;;;;;;5066164;28;20221;-67
2021/09/17 12:11:01;;;;;;;10.07;8.20;;;23.30;54.10;;;;;;5072499;28;20208;-67
2021/09/17 12:13:32;;;;;;;10.33;9.33;;;23.30;54.30;;;;;;5087981;28;20240;-67
2021/09/17 12:16:09;;;;;;;10.17;8.33;;;23.30;54.40;;;;;;5073715;28;20195;-67
2021/09/17 12:18:59;;;;;;;10.10;8.30;;;23.30;54.80;;;;;;5076522;28;20206;-67
2021/09/17 12:21:29;;;;;;;11.37;10.07;;;23.30;54.80;;;;;;5058263;28;20182;-67
2021/09/17 12:24:22;;;;;;;12.33;10.63;;;23.30;54.20;;;;;;5068572;28;20209;-67
2021/09/17 12:27:04;;;;;;;12.00;10.80;;;23.20;54.50;;;;;;5086260;28;20279;-67
2021/09/17 12:29:34;;;;;;;11.60;10.40;;;23.20;54.90;;;;;;5083917;28;20682;-67
2021/09/17 12:32:24;;;;;;;10.87;9.77;;;23.20;54.70;;;;;;5091001;28;20705;-67
2021/09/17 12:35:29;;;;;;;10.33;9.23;;;23.20;54.90;;;;;;5065068;28;20267;-66
2021/09/17 12:38:06;;;;;;;8.87;7.97;;;23.20;55.20;;;;;;5068956;28;20197;-67
2021/09/17 12:40:40;;;;;;;9.43;8.50;;;23.30;55.40;;;;;;5078713;28;20301;-67
2021/09/17 12:43:33;;;;;;;11.50;10.50;;;23.20;55.50;;;;;;5091029;28;20196;-67
2021/09/17 12:46:09;;;;;;;13.27;9.77;;;23.30;54.70;;;;;;5053097;28;20238;-67
2021/09/17 12:48:51;;;;;;;10.67;9.57;;;23.30;54.70;;;;;;5075935;28;20246;-67
2021/09/17 12:51:29;;;;;;;11.10;9.00;;;23.30;54.90;;;;;;5079999;28;20256;-67
2021/09/17 12:54:00;;;;;;;10.07;8.67;;;23.30;55.20;;;;;;5072032;28;20517;-67
2021/09/17 12:56:31;;;;;;;12.23;9.00;;;23.30;55.40;;;;;;5090891;28;20197;-67
2021/09/17 12:59:19;;;;;;;9.87;8.87;;;23.30;54.60;;;;;;5087536;28;20600;-67
2021/09/17 13:01:49;;;;;;;15.17;9.37;;;23.30;54.30;;;;;;5069273;28;20537;-67
2021/09/17 13:04:27;;;;;;;9.90;8.50;;;23.30;53.30;;;;;;5087132;28;20615;-66
2021/09/17 13:07:05;;;;;;;10.00;8.90;;;23.30;53.70;;;;;;5071547;28;20201;-66